Time;durP1;ratioP1;P1;durP2;ratioP2;P2;SDS_P1;SDS_P2;PMS_P1;PMS_P2;Temp;Humidity;BMP_temperature;BMP_pressure;BME280_temperature;BME280_humidity;BME280_pressure;Samples;Min_cycle;Max_cycle;Signal;HPM_P1;HPM_P2
2024/03/29 00:01:24;;;;;;;2.53;2.30;;;18.10;63.90;;;;;;5061089;28;20498;-81
2024/03/29 00:03:52;;;;;;;3.00;2.58;;;18.10;63.90;;;;;;5061162;28;20615;-81
2024/03/29 00:06:20;;;;;;;2.50;2.30;;;18.00;64.00;;;;;;5045127;28;20558;-81
2024/03/29 00:08:45;;;;;;;2.72;2.28;;;18.00;63.70;;;;;;5044406;28;20176;-81
2024/03/29 00:11:11;;;;;;;2.60;2.40;;;18.00;63.80;;;;;;5061178;28;20522;-81
2024/03/29 00:13:40;;;;;;;2.60;2.38;;;18.00;63.80;;;;;;5044841;28;20164;-83
2024/03/29 00:16:07;;;;;;;2.70;2.38;;;18.00;63.80;;;;;;5061695;28;20229;-81
2024/03/29 00:18:34;;;;;;;3.15;2.50;;;18.00;64.00;;;;;;5078002;28;20164;-81
2024/03/29 00:20:59;;;;;;;2.78;2.40;;;17.90;63.60;;;;;;5095623;28;20222;-82
2024/03/29 00:23:26;;;;;;;2.67;2.47;;;18.00;63.80;;;;;;5044316;28;20619;-81
2024/03/29 00:25:52;;;;;;;3.00;2.40;;;18.00;63.90;;;;;;5036262;28;20637;-81
2024/03/29 00:28:18;;;;;;;2.47;2.25;;;18.10;64.00;;;;;;5055236;28;20165;-81
2024/03/29 00:30:44;;;;;;;3.10;2.33;;;18.00;64.20;;;;;;5036103;28;20196;-81
2024/03/29 00:33:10;;;;;;;4.32;2.60;;;18.00;64.10;;;;;;5054087;28;20146;-81
2024/03/29 00:35:36;;;;;;;3.65;2.80;;;18.10;64.20;;;;;;5054404;28;20212;-82
2024/03/29 00:38:02;;;;;;;3.35;2.70;;;18.00;64.00;;;;;;5037125;28;20675;-82
2024/03/29 00:40:27;;;;;;;2.60;2.40;;;18.00;64.10;;;;;;5053230;28;20174;-81
2024/03/29 00:42:53;;;;;;;3.00;2.50;;;18.00;64.20;;;;;;5053937;28;20522;-81
2024/03/29 00:45:20;;;;;;;2.90;2.53;;;18.00;64.20;;;;;;5037212;28;20639;-81
2024/03/29 00:47:46;;;;;;;3.00;2.53;;;18.00;64.20;;;;;;5053533;28;20158;-81
2024/03/29 00:50:14;;;;;;;2.90;2.60;;;18.00;64.20;;;;;;5053570;28;20209;-81
2024/03/29 00:52:40;;;;;;;4.05;2.60;;;18.00;64.00;;;;;;5053185;28;20970;-81
2024/03/29 00:55:06;;;;;;;2.95;2.45;;;18.00;64.10;;;;;;5052836;28;20178;-81
2024/03/29 00:57:32;;;;;;;2.75;2.25;;;18.10;64.00;;;;;;5037838;28;20221;-82
2024/03/29 00:59:59;;;;;;;3.50;2.53;;;18.00;63.90;;;;;;5038237;28;20178;-81
2024/03/29 01:02:25;;;;;;;3.28;2.63;;;18.00;64.10;;;;;;5037950;28;20162;-81
2024/03/29 01:04:51;;;;;;;3.22;2.47;;;18.10;63.70;;;;;;5053664;28;20560;-82
2024/03/29 01:07:20;;;;;;;3.35;2.28;;;18.10;64.00;;;;;;5036662;28;20170;-81
2024/03/29 01:09:47;;;;;;;3.20;2.88;;;18.00;63.70;;;;;;5019743;28;20218;-80
2024/03/29 01:12:13;;;;;;;3.03;2.53;;;18.00;63.90;;;;;;5053475;28;20204;-80
2024/03/29 01:14:40;;;;;;;2.25;2.08;;;18.00;64.00;;;;;;5053484;28;20669;-81
2024/03/29 01:17:10;;;;;;;3.92;2.60;;;18.00;63.90;;;;;;5036617;28;20162;-80
2024/03/29 01:19:36;;;;;;;2.70;2.38;;;18.10;64.00;;;;;;5053154;28;20181;-81
2024/03/29 01:22:08;;;;;;;2.80;2.50;;;18.00;64.10;;;;;;5036830;28;20620;-80
2024/03/29 01:24:35;;;;;;;2.95;2.50;;;18.00;64.00;;;;;;5003223;28;20323;-81
2024/03/29 01:27:06;;;;;;;2.83;2.42;;;18.00;64.20;;;;;;5035440;28;20248;-81
2024/03/29 01:29:33;;;;;;;2.88;2.55;;;18.10;64.20;;;;;;5012493;28;20241;-81
2024/03/29 01:32:00;;;;;;;3.85;2.40;;;18.00;64.10;;;;;;5030435;28;20156;-80
2024/03/29 01:34:25;;;;;;;2.80;2.50;;;18.00;64.10;;;;;;5013851;28;20229;-81
2024/03/29 01:36:51;;;;;;;2.95;2.45;;;18.00;64.10;;;;;;5030422;28;20611;-81
2024/03/29 01:39:24;;;;;;;3.15;2.50;;;18.00;63.70;;;;;;5029658;28;20524;-81
2024/03/29 01:41:50;;;;;;;2.90;2.40;;;18.10;64.10;;;;;;5028336;28;20198;-81
2024/03/29 01:44:16;;;;;;;4.47;2.72;;;18.00;64.00;;;;;;5029714;28;20656;-81
2024/03/29 01:46:44;;;;;;;2.72;2.50;;;18.00;64.20;;;;;;5013355;28;20171;-81
2024/03/29 01:49:10;;;;;;;3.88;2.50;;;18.00;64.10;;;;;;5029366;28;20180;-81
2024/03/29 01:51:37;;;;;;;3.35;2.60;;;18.00;64.00;;;;;;5013206;28;20167;-81
2024/03/29 01:54:03;;;;;;;3.97;2.75;;;18.00;64.10;;;;;;5028701;28;20209;-81
2024/03/29 01:56:35;;;;;;;2.85;2.58;;;18.00;64.00;;;;;;5039230;28;20236;-81
2024/03/29 01:59:01;;;;;;;2.95;2.65;;;18.00;64.30;;;;;;5018567;28;20204;-81
2024/03/29 02:01:28;;;;;;;3.75;2.60;;;17.90;64.30;;;;;;5036431;28;20629;-81
2024/03/29 02:03:54;;;;;;;2.80;2.25;;;17.90;64.10;;;;;;5052847;28;20165;-81
2024/03/29 02:06:21;;;;;;;3.20;2.60;;;18.00;64.30;;;;;;5052695;28;20531;-81
2024/03/29 02:08:52;;;;;;;3.15;2.40;;;18.00;64.10;;;;;;5035816;28;20237;-81
2024/03/29 02:11:17;;;;;;;3.40;2.80;;;18.10;64.20;;;;;;5020281;28;20158;-81
2024/03/29 02:13:43;;;;;;;3.28;2.33;;;18.00;64.10;;;;;;5035699;28;20154;-81
2024/03/29 02:16:09;;;;;;;4.38;2.53;;;18.00;64.30;;;;;;5019945;28;20651;-81
2024/03/29 02:18:35;;;;;;;3.03;2.65;;;17.90;64.10;;;;;;5019648;28;20166;-82
2024/03/29 02:21:02;;;;;;;3.08;2.58;;;18.00;64.20;;;;;;5036185;28;20655;-81
2024/03/29 02:23:32;;;;;;;3.17;2.45;;;17.90;64.30;;;;;;5036193;28;20220;-81
2024/03/29 02:26:01;;;;;;;3.15;2.47;;;17.90;64.40;;;;;;5018891;28;20182;-81
2024/03/29 02:28:26;;;;;;;3.00;2.70;;;17.90;64.30;;;;;;5042410;28;20623;-80
2024/03/29 02:30:53;;;;;;;2.95;2.40;;;18.00;64.60;;;;;;5042505;28;20655;-81
2024/03/29 02:33:24;;;;;;;2.85;2.40;;;17.90;64.30;;;;;;5076257;28;20157;-80
2024/03/29 02:35:51;;;;;;;4.93;2.67;;;18.00;64.50;;;;;;5041856;28;20181;-81
2024/03/29 02:38:24;;;;;;;2.90;2.60;;;17.90;64.30;;;;;;5057834;28;20548;-81
2024/03/29 02:40:50;;;;;;;4.28;2.75;;;17.90;64.50;;;;;;5058249;28;20184;-81
2024/03/29 02:43:22;;;;;;;4.80;2.50;;;17.90;64.40;;;;;;5075950;28;20627;-81
2024/03/29 02:45:48;;;;;;;3.42;2.80;;;17.90;64.50;;;;;;5058151;28;20221;-81
2024/03/29 02:48:14;;;;;;;3.70;2.97;;;17.90;64.40;;;;;;5023066;28;20170;-81
2024/03/29 02:50:40;;;;;;;4.55;2.50;;;18.00;64.50;;;;;;5035508;28;20722;-81
2024/03/29 02:53:07;;;;;;;2.70;2.30;;;17.90;64.10;;;;;;5053486;28;20173;-81
2024/03/29 02:55:36;;;;;;;2.67;2.30;;;18.00;64.20;;;;;;5055241;28;20154;-80
2024/03/29 02:58:06;;;;;;;3.15;2.40;;;17.90;64.30;;;;;;5038133;28;20185;-82
2024/03/29 03:00:32;;;;;;;3.08;2.50;;;17.90;64.20;;;;;;5038428;28;20598;-81
2024/03/29 03:02:57;;;;;;;2.83;2.55;;;17.90;64.40;;;;;;5038966;28;20193;-81
2024/03/29 03:05:24;;;;;;;3.03;2.70;;;17.90;64.40;;;;;;5056088;28;20559;-81
2024/03/29 03:13:12;;;;;;;3.05;2.67;;;17.90;64.40;;;;;;5055760;28;20162;-81
2024/03/29 03:15:39;;;;;;;3.38;2.60;;;17.90;64.40;;;;;;5038510;28;20312;-81
2024/03/29 03:18:05;;;;;;;3.60;2.70;;;17.90;64.30;;;;;;5055213;28;20229;-81
2024/03/29 03:20:32;;;;;;;3.03;2.38;;;17.90;64.30;;;;;;5056379;28;20173;-81
2024/03/29 03:23:00;;;;;;;2.95;2.60;;;17.90;64.20;;;;;;5038233;28;20195;-80
2024/03/29 03:25:26;;;;;;;2.53;2.33;;;17.90;64.30;;;;;;5055306;28;20284;-81
2024/03/29 03:27:53;;;;;;;3.80;2.63;;;17.90;64.30;;;;;;5055569;28;20162;-81
2024/03/29 03:30:19;;;;;;;3.75;2.38;;;18.00;64.50;;;;;;5038590;28;20316;-80
2024/03/29 03:32:45;;;;;;;3.47;2.60;;;17.90;64.60;;;;;;5054953;28;20232;-80
2024/03/29 03:35:11;;;;;;;3.08;2.50;;;17.90;64.50;;;;;;5038324;28;20637;-81
2024/03/29 03:37:37;;;;;;;2.85;2.53;;;18.00;64.60;;;;;;5055068;28;20220;-81
2024/03/29 03:40:07;;;;;;;3.85;2.80;;;17.90;64.50;;;;;;5055128;28;20150;-81
2024/03/29 03:42:33;;;;;;;3.30;2.75;;;17.90;64.70;;;;;;5032019;28;20647;-80
2024/03/29 03:44:59;;;;;;;4.07;2.80;;;17.80;64.60;;;;;;5061809;28;20168;-81
2024/03/29 03:47:24;;;;;;;3.75;2.90;;;17.90;64.60;;;;;;5096269;28;20525;-81
2024/03/29 03:49:50;;;;;;;3.28;2.80;;;17.80;64.60;;;;;;5061348;28;20658;-80
2024/03/29 03:52:17;;;;;;;3.05;2.75;;;17.90;64.40;;;;;;5045078;28;20587;-81
2024/03/29 03:54:43;;;;;;;3.47;2.70;;;17.80;64.70;;;;;;5044050;28;20195;-81
2024/03/29 03:57:14;;;;;;;3.28;2.47;;;17.90;64.50;;;;;;5061526;28;20615;-82
2024/03/29 03:59:41;;;;;;;2.97;2.47;;;17.90;64.80;;;;;;5060062;28;20184;-81
2024/03/29 04:02:11;;;;;;;3.30;2.65;;;17.90;64.70;;;;;;5044676;28;20168;-81
2024/03/29 04:04:41;;;;;;;3.33;2.60;;;17.90;64.70;;;;;;5043288;28;20271;-81
2024/03/29 04:07:07;;;;;;;3.60;2.88;;;17.90;64.30;;;;;;5043539;28;20229;-82
2024/03/29 04:09:33;;;;;;;3.33;2.75;;;17.90;64.40;;;;;;5060967;28;20189;-81
2024/03/29 04:12:01;;;;;;;3.53;2.55;;;18.00;64.40;;;;;;5044313;28;20171;-82
2024/03/29 04:14:26;;;;;;;3.28;2.60;;;17.90;64.50;;;;;;5077533;28;20167;-81
2024/03/29 04:16:52;;;;;;;3.63;2.72;;;17.90;64.60;;;;;;5060998;28;20675;-82
2024/03/29 04:19:18;;;;;;;3.17;2.50;;;17.90;64.60;;;;;;5060740;28;20230;-81
2024/03/29 04:21:43;;;;;;;3.00;2.55;;;17.90;64.50;;;;;;5044255;28;20191;-81
2024/03/29 04:24:10;;;;;;;2.67;2.40;;;17.90;64.50;;;;;;5077583;28;20604;-81
2024/03/29 04:26:36;;;;;;;3.97;2.88;;;17.90;64.50;;;;;;5077043;28;20241;-81
2024/03/29 04:29:03;;;;;;;3.00;2.50;;;17.90;64.70;;;;;;5040642;28;20256;-81
2024/03/29 04:31:28;;;;;;;3.35;2.67;;;17.90;64.50;;;;;;5057315;28;20252;-81
2024/03/29 04:33:54;;;;;;;3.20;2.60;;;17.90;64.70;;;;;;5042331;28;20185;-81
2024/03/29 04:36:24;;;;;;;3.20;2.45;;;17.90;64.70;;;;;;5061080;28;20651;-81
2024/03/29 04:38:50;;;;;;;2.85;2.55;;;17.90;64.60;;;;;;5060415;28;20545;-81
2024/03/29 04:41:16;;;;;;;3.25;2.70;;;17.80;64.40;;;;;;5060817;28;20639;-82
2024/03/29 04:43:43;;;;;;;3.67;2.92;;;17.90;64.70;;;;;;5046619;28;20177;-81
2024/03/29 04:46:11;;;;;;;3.38;2.90;;;17.90;64.70;;;;;;5041929;28;20157;-81
2024/03/29 04:48:38;;;;;;;3.33;2.85;;;17.90;64.70;;;;;;5024004;28;20205;-82
2024/03/29 04:51:05;;;;;;;3.10;2.60;;;17.90;64.50;;;;;;5041078;28;20192;-81
2024/03/29 04:53:31;;;;;;;4.57;2.90;;;17.80;64.50;;;;;;5040600;28;20147;-81
2024/03/29 04:55:57;;;;;;;3.17;2.80;;;17.90;64.80;;;;;;5040709;28;20154;-81
2024/03/29 04:58:26;;;;;;;3.70;2.60;;;17.80;64.50;;;;;;5040389;28;20233;-82
2024/03/29 05:00:52;;;;;;;4.00;2.92;;;17.80;64.60;;;;;;5019077;28;20667;-81
2024/03/29 05:03:18;;;;;;;3.00;2.55;;;17.90;64.70;;;;;;5020058;28;20178;-81
2024/03/29 05:05:45;;;;;;;2.75;2.47;;;17.80;64.80;;;;;;5036301;28;20154;-81
2024/03/29 05:08:11;;;;;;;3.10;2.60;;;17.90;64.50;;;;;;5052799;28;20158;-81
2024/03/29 05:10:39;;;;;;;3.28;2.78;;;17.90;64.30;;;;;;5020381;28;20206;-81
2024/03/29 05:13:05;;;;;;;2.97;2.67;;;17.90;64.50;;;;;;5036628;28;20635;-82
2024/03/29 05:15:33;;;;;;;3.80;2.90;;;17.90;64.70;;;;;;5052504;28;20154;-81
2024/03/29 05:17:59;;;;;;;3.28;2.83;;;17.90;65.30;;;;;;5036247;28;20169;-81
2024/03/29 05:20:24;;;;;;;4.57;3.00;;;17.90;64.50;;;;;;5036153;28;20304;-81
2024/03/29 05:22:50;;;;;;;3.55;2.80;;;17.90;64.70;;;;;;5036029;28;20181;-82
2024/03/29 05:25:17;;;;;;;4.72;2.92;;;17.90;64.50;;;;;;5019433;28;20628;-81
2024/03/29 05:27:43;;;;;;;3.78;2.72;;;17.90;64.60;;;;;;5035959;28;20165;-81
2024/03/29 05:30:10;;;;;;;3.83;2.75;;;17.90;64.40;;;;;;5019404;28;20229;-81
2024/03/29 05:32:36;;;;;;;4.10;2.88;;;17.90;64.60;;;;;;5052503;28;20158;-82
2024/03/29 05:35:03;;;;;;;3.67;3.00;;;17.90;64.50;;;;;;5052800;28;20158;-81
2024/03/29 05:37:28;;;;;;;3.63;2.92;;;17.90;64.60;;;;;;5052726;28;20170;-81
2024/03/29 05:40:04;;;;;;;4.55;3.10;;;17.90;64.60;;;;;;5035790;28;20727;-82
2024/03/29 05:42:35;;;;;;;3.05;2.70;;;17.90;65.40;;;;;;5037189;28;20154;-82
2024/03/29 05:45:01;;;;;;;3.25;2.58;;;17.90;64.40;;;;;;5034618;28;20193;-81
2024/03/29 05:47:27;;;;;;;3.40;2.63;;;17.90;64.50;;;;;;5035885;28;20620;-81
2024/03/29 05:49:53;;;;;;;3.45;2.70;;;17.90;64.40;;;;;;5035759;28;20189;-81
2024/03/29 05:52:23;;;;;;;4.15;2.78;;;17.90;64.70;;;;;;5035601;28;20161;-81
2024/03/29 05:54:50;;;;;;;3.58;2.80;;;17.90;64.50;;;;;;5034355;28;20240;-81
2024/03/29 05:57:16;;;;;;;3.35;2.85;;;17.90;64.50;;;;;;5019153;28;20261;-82
2024/03/29 05:59:42;;;;;;;3.72;2.90;;;17.80;64.70;;;;;;5053610;28;20244;-81
2024/03/29 06:02:08;;;;;;;4.60;3.20;;;17.80;64.50;;;;;;5018955;28;20265;-82
2024/03/29 06:04:35;;;;;;;3.85;2.63;;;17.90;64.40;;;;;;5052197;28;20170;-81
2024/03/29 06:07:03;;;;;;;3.22;2.60;;;17.90;64.70;;;;;;5019262;28;20260;-81
2024/03/29 06:09:29;;;;;;;3.58;2.80;;;17.80;64.60;;;;;;5051021;28;20192;-81
2024/03/29 06:11:56;;;;;;;3.88;2.60;;;17.90;64.60;;;;;;5038946;28;20181;-82
2024/03/29 06:19:43;;;;;;;4.05;3.05;;;17.90;64.70;;;;;;5053114;28;20530;-81
2024/03/29 06:22:09;;;;;;;3.97;3.08;;;17.80;64.90;;;;;;5034366;28;20209;-81
2024/03/29 06:24:36;;;;;;;3.97;2.90;;;17.90;64.70;;;;;;5052122;28;20231;-82
2024/03/29 06:27:02;;;;;;;3.20;2.50;;;17.80;64.90;;;;;;5019037;28;20173;-82
2024/03/29 06:29:27;;;;;;;3.42;2.80;;;17.90;64.80;;;;;;5038385;28;20226;-82
2024/03/29 06:31:54;;;;;;;3.45;2.63;;;17.80;64.70;;;;;;5022988;28;20162;-81
2024/03/29 06:34:21;;;;;;;3.35;2.72;;;17.90;64.80;;;;;;5055575;28;20238;-81
2024/03/29 06:36:46;;;;;;;4.30;2.88;;;17.80;64.70;;;;;;5021464;28;20273;-81
2024/03/29 06:39:12;;;;;;;4.07;2.90;;;17.80;64.80;;;;;;5055572;28;20241;-81
2024/03/29 06:41:38;;;;;;;3.30;2.80;;;17.90;64.80;;;;;;5055563;28;20169;-82
2024/03/29 06:44:04;;;;;;;4.47;3.08;;;17.80;64.70;;;;;;5038817;28;20150;-81
2024/03/29 06:46:29;;;;;;;3.22;2.80;;;17.90;64.50;;;;;;5022210;28;20273;-82
2024/03/29 06:48:56;;;;;;;3.13;2.83;;;17.90;64.70;;;;;;5022178;28;20231;-81
2024/03/29 06:51:22;;;;;;;3.55;2.78;;;17.80;64.70;;;;;;5038777;28;20212;-82
2024/03/29 06:53:48;;;;;;;4.10;2.90;;;17.80;64.70;;;;;;5063395;28;20555;-81
2024/03/29 06:56:15;;;;;;;3.80;2.95;;;17.90;64.90;;;;;;5041936;28;20180;-81
2024/03/29 06:58:41;;;;;;;3.70;2.80;;;17.80;64.90;;;;;;5057762;28;20433;-81
2024/03/29 07:01:08;;;;;;;3.45;2.88;;;17.80;64.80;;;;;;5058838;28;20230;-81
2024/03/29 07:03:33;;;;;;;3.58;2.90;;;17.80;64.70;;;;;;5058739;28;20160;-81
2024/03/29 07:05:59;;;;;;;3.47;2.80;;;17.80;64.90;;;;;;5075564;28;20149;-81
2024/03/29 07:08:27;;;;;;;3.30;2.80;;;17.80;64.50;;;;;;5038359;28;20166;-81
2024/03/29 07:11:00;;;;;;;3.42;2.95;;;17.70;65.00;;;;;;5038207;28;20186;-81
2024/03/29 07:13:28;;;;;;;4.18;3.05;;;17.80;64.80;;;;;;5056275;28;20204;-81
2024/03/29 07:15:54;;;;;;;4.57;2.92;;;17.80;64.70;;;;;;5038504;28;20205;-82
2024/03/29 07:18:24;;;;;;;3.08;2.67;;;17.80;64.40;;;;;;5038189;28;20162;-82
2024/03/29 07:20:52;;;;;;;3.97;2.90;;;17.90;64.40;;;;;;5037398;28;20178;-81
2024/03/29 07:23:19;;;;;;;3.10;2.45;;;17.90;64.10;;;;;;5054740;28;20150;-82
2024/03/29 07:25:45;;;;;;;4.15;2.90;;;17.90;63.90;;;;;;5055910;28;20154;-82
2024/03/29 07:28:14;;;;;;;3.70;3.15;;;18.00;63.90;;;;;;5056678;28;20163;-81
2024/03/29 07:30:41;;;;;;;3.45;2.90;;;18.00;64.00;;;;;;5042428;28;20188;-81
2024/03/29 07:33:09;;;;;;;3.05;2.63;;;17.90;64.00;;;;;;5025029;28;20632;-81
2024/03/29 07:35:35;;;;;;;3.35;3.05;;;18.00;64.00;;;;;;5025177;28;20630;-80
2024/03/29 07:38:00;;;;;;;3.05;2.67;;;18.00;63.50;;;;;;5057736;28;20193;-83
2024/03/29 07:40:30;;;;;;;3.45;2.90;;;18.00;63.60;;;;;;5040715;28;20659;-81
2024/03/29 07:42:57;;;;;;;3.47;2.38;;;18.00;63.60;;;;;;5007920;28;20234;-80
2024/03/29 07:45:23;;;;;;;3.63;2.65;;;18.00;63.60;;;;;;5059102;28;20215;-81
2024/03/29 07:47:52;;;;;;;3.17;2.70;;;18.00;63.80;;;;;;5077911;28;20607;-81
2024/03/29 07:50:20;;;;;;;3.05;2.60;;;18.00;63.60;;;;;;5078170;28;20242;-81
2024/03/29 07:52:46;;;;;;;3.70;2.92;;;18.00;64.00;;;;;;5077789;28;20152;-81
2024/03/29 07:55:11;;;;;;;2.88;2.50;;;18.00;63.80;;;;;;5060515;28;20169;-81
2024/03/29 07:57:37;;;;;;;3.50;2.80;;;18.10;63.50;;;;;;5077596;28;20159;-81
2024/03/29 08:00:05;;;;;;;3.20;2.90;;;18.00;63.50;;;;;;5060631;28;20175;-82
2024/03/29 08:02:32;;;;;;;2.80;2.50;;;18.00;63.10;;;;;;5077667;28;20149;-82
2024/03/29 08:04:58;;;;;;;3.63;2.60;;;18.10;63.40;;;;;;5044124;28;20176;-81
2024/03/29 08:07:24;;;;;;;3.45;2.67;;;18.10;63.40;;;;;;5061249;28;20157;-82
2024/03/29 08:09:50;;;;;;;2.95;2.60;;;18.10;63.40;;;;;;5077013;28;20188;-81
2024/03/29 08:12:16;;;;;;;2.88;2.35;;;18.10;63.20;;;;;;5060815;28;20149;-82
2024/03/29 08:14:46;;;;;;;3.03;2.47;;;18.00;63.20;;;;;;5044070;28;20165;-82
2024/03/29 08:17:12;;;;;;;3.13;2.70;;;18.20;62.90;;;;;;5077759;28;20658;-81
2024/03/29 08:19:42;;;;;;;2.95;2.53;;;18.10;63.10;;;;;;5062030;28;20157;-81
2024/03/29 08:22:10;;;;;;;2.60;2.40;;;18.10;63.10;;;;;;5062638;28;20171;-82
2024/03/29 08:24:37;;;;;;;3.28;2.67;;;18.10;63.30;;;;;;5066550;28;20177;-81
2024/03/29 08:27:03;;;;;;;2.90;2.50;;;18.10;63.00;;;;;;5065435;28;20188;-82
2024/03/29 08:29:31;;;;;;;2.95;2.50;;;18.10;63.00;;;;;;5045981;28;20232;-82
2024/03/29 08:31:57;;;;;;;2.72;2.40;;;18.10;62.90;;;;;;5079059;28;20145;-81
2024/03/29 08:34:23;;;;;;;3.17;2.25;;;18.10;63.10;;;;;;5062973;28;20207;-82
2024/03/29 08:36:49;;;;;;;2.92;2.58;;;18.10;63.20;;;;;;5079579;28;20642;-81
2024/03/29 08:39:16;;;;;;;3.17;2.60;;;18.10;63.00;;;;;;5079377;28;20165;-82
2024/03/29 08:41:44;;;;;;;2.60;2.40;;;18.10;63.60;;;;;;5045974;28;20171;-82
2024/03/29 08:44:16;;;;;;;2.45;2.25;;;18.10;63.60;;;;;;5079379;28;20170;-82
2024/03/29 08:46:42;;;;;;;2.90;2.60;;;18.10;63.20;;;;;;5060845;28;20282;-82
2024/03/29 08:49:11;;;;;;;2.83;2.55;;;18.10;63.30;;;;;;5061999;28;20598;-82
2024/03/29 08:51:37;;;;;;;2.40;2.20;;;18.10;63.00;;;;;;5057629;28;20213;-81
2024/03/29 08:54:05;;;;;;;2.60;2.40;;;18.10;63.00;;;;;;5076306;28;20619;-82
2024/03/29 08:56:34;;;;;;;2.60;2.28;;;18.10;62.90;;;;;;5075304;28;20621;-81
2024/03/29 08:59:07;;;;;;;2.88;2.30;;;18.10;63.10;;;;;;5077747;28;20574;-81
2024/03/29 09:01:35;;;;;;;2.53;2.25;;;18.20;63.40;;;;;;5076496;28;20146;-82
2024/03/29 09:04:01;;;;;;;2.92;2.40;;;18.10;63.20;;;;;;5061014;28;20161;-81
2024/03/29 09:06:27;;;;;;;2.97;2.40;;;18.10;63.00;;;;;;5060384;28;20153;-82
2024/03/29 09:08:53;;;;;;;2.33;2.13;;;18.10;62.90;;;;;;5060365;28;20631;-82
2024/03/29 09:11:19;;;;;;;2.63;2.40;;;18.10;62.90;;;;;;5077239;28;20180;-82
2024/03/29 09:13:44;;;;;;;3.13;2.60;;;18.20;62.80;;;;;;5060439;28;20173;-81
2024/03/29 09:16:11;;;;;;;2.40;2.20;;;18.20;62.80;;;;;;5077750;28;20468;-82
2024/03/29 09:18:38;;;;;;;2.50;2.28;;;18.10;63.70;;;;;;5077074;28;20168;-82
2024/03/29 09:21:11;;;;;;;2.45;2.25;;;18.10;63.80;;;;;;5077716;28;20146;-81
2024/03/29 09:23:41;;;;;;;2.67;2.38;;;18.10;63.40;;;;;;5062310;28;20256;-82
2024/03/29 09:26:07;;;;;;;2.60;2.28;;;18.10;64.10;;;;;;5046708;28;20173;-82
2024/03/29 09:28:35;;;;;;;2.50;2.20;;;18.10;64.10;;;;;;5044109;28;20578;-83
2024/03/29 09:31:02;;;;;;;3.63;2.30;;;18.10;64.20;;;;;;5044442;28;20621;-81
2024/03/29 09:33:27;;;;;;;2.95;2.40;;;18.10;63.80;;;;;;5059283;28;20499;-81
2024/03/29 09:35:59;;;;;;;2.90;2.28;;;18.10;63.20;;;;;;5059506;28;20161;-82
2024/03/29 09:38:26;;;;;;;1.95;1.75;;;18.20;63.20;;;;;;5038732;28;20273;-82
2024/03/29 09:41:11;;;;;;;2.40;2.20;;;18.20;62.90;;;;;;5022877;28;20245;-82
2024/03/29 09:43:39;;;;;;;2.70;2.17;;;18.20;62.80;;;;;;5023202;28;20264;-82
2024/03/29 09:46:05;;;;;;;2.70;2.10;;;18.20;62.80;;;;;;5021686;28;20543;-82
2024/03/29 09:48:36;;;;;;;2.55;2.28;;;18.30;63.00;;;;;;5022001;28;20251;-82
2024/03/29 09:51:04;;;;;;;2.20;2.00;;;18.20;63.10;;;;;;5022017;28;20217;-82
2024/03/29 09:53:31;;;;;;;2.38;2.10;;;18.30;63.30;;;;;;5021386;28;20182;-82
2024/03/29 09:55:59;;;;;;;2.38;2.05;;;18.20;63.20;;;;;;5004829;28;20548;-82
2024/03/29 09:58:25;;;;;;;2.70;2.35;;;18.30;63.20;;;;;;5004692;28;20586;-82
2024/03/29 10:00:52;;;;;;;2.97;2.15;;;18.30;63.40;;;;;;5037015;28;20562;-82
2024/03/29 10:03:28;;;;;;;2.80;2.50;;;18.20;63.00;;;;;;5023426;28;20185;-83
2024/03/29 10:05:57;;;;;;;2.55;2.30;;;18.30;63.00;;;;;;5009469;28;20192;-83
2024/03/29 10:08:25;;;;;;;2.72;2.20;;;18.30;62.90;;;;;;5026521;28;20190;-82
2024/03/29 10:10:51;;;;;;;3.00;2.00;;;18.30;63.00;;;;;;5077934;28;20304;-82
2024/03/29 10:13:17;;;;;;;2.33;2.10;;;18.30;63.00;;;;;;5061930;28;20150;-83
2024/03/29 10:15:47;;;;;;;3.63;2.30;;;18.40;62.70;;;;;;5061420;28;20160;-82
2024/03/29 10:18:12;;;;;;;3.47;2.13;;;18.30;62.70;;;;;;5079992;28;20608;-82
2024/03/29 10:20:38;;;;;;;2.35;2.03;;;18.40;62.60;;;;;;5045335;28;20161;-82
2024/03/29 10:23:04;;;;;;;2.67;2.00;;;18.40;62.60;;;;;;5046740;28;20616;-82
2024/03/29 10:25:50;;;;;;;2.55;2.22;;;18.40;62.50;;;;;;5061889;28;20167;-82
2024/03/29 10:28:17;;;;;;;2.50;2.20;;;18.40;62.80;;;;;;5080371;28;20189;-82
2024/03/29 10:30:43;;;;;;;2.75;2.10;;;18.30;62.80;;;;;;5065436;28;20207;-82
2024/03/29 10:33:08;;;;;;;2.10;1.77;;;18.40;62.80;;;;;;5065647;28;20157;-82
2024/03/29 10:35:34;;;;;;;5.75;2.42;;;18.40;62.50;;;;;;5082542;28;20218;-82
2024/03/29 10:38:03;;;;;;;2.25;1.92;;;18.40;62.60;;;;;;5100638;28;20494;-82
2024/03/29 10:40:31;;;;;;;2.03;1.88;;;18.40;63.40;;;;;;5065388;28;20172;-82
2024/03/29 10:42:56;;;;;;;2.42;2.10;;;18.40;62.40;;;;;;5049067;28;20165;-82
2024/03/29 10:45:22;;;;;;;3.17;2.00;;;18.40;63.10;;;;;;5057832;28;20169;-82
2024/03/29 10:47:49;;;;;;;2.88;1.92;;;18.40;62.50;;;;;;5045037;28;20169;-82
2024/03/29 10:50:14;;;;;;;2.53;2.00;;;18.40;62.70;;;;;;5044464;28;20288;-82
2024/03/29 10:52:40;;;;;;;2.72;2.17;;;18.40;62.80;;;;;;5028121;28;20210;-82
2024/03/29 10:55:10;;;;;;;2.20;1.90;;;18.40;62.70;;;;;;5044234;28;20180;-82
2024/03/29 10:57:36;;;;;;;2.20;2.00;;;18.40;63.20;;;;;;5083033;28;20156;-83
2024/03/29 11:00:20;;;;;;;2.13;1.80;;;18.40;62.90;;;;;;5052491;28;20162;-83
2024/03/29 11:02:50;;;;;;;1.90;1.80;;;18.40;63.50;;;;;;5026169;28;20273;-82
2024/03/29 11:05:16;;;;;;;1.83;1.73;;;18.40;62.90;;;;;;5010175;28;20163;-83
2024/03/29 11:07:48;;;;;;;2.08;1.88;;;18.40;63.30;;;;;;5010602;28;20195;-82
2024/03/29 11:10:29;;;;;;;2.40;2.20;;;18.40;62.70;;;;;;5008795;28;20190;-83
2024/03/29 11:13:21;;;;;;;2.78;1.80;;;18.40;62.90;;;;;;5010637;28;20186;-83
2024/03/29 11:15:49;;;;;;;2.05;1.85;;;18.50;63.20;;;;;;5042919;28;20174;-82
2024/03/29 11:18:16;;;;;;;2.00;1.80;;;18.40;63.50;;;;;;4993968;28;20185;-83
2024/03/29 11:20:46;;;;;;;2.30;2.10;;;18.40;63.20;;;;;;4993934;28;20305;-83
2024/03/29 11:23:15;;;;;;;2.75;2.15;;;18.40;62.90;;;;;;4993356;28;20194;-83
2024/03/29 11:25:43;;;;;;;2.28;2.08;;;18.40;62.40;;;;;;5009152;28;20197;-83
2024/03/29 11:28:09;;;;;;;2.20;1.90;;;18.40;62.80;;;;;;5008915;28;20174;-83
2024/03/29 11:30:42;;;;;;;3.78;2.00;;;18.40;63.40;;;;;;4992608;28;20290;-83
2024/03/29 11:33:24;;;;;;;2.00;1.80;;;18.40;63.10;;;;;;5018908;28;20180;-84
2024/03/29 11:35:50;;;;;;;1.92;1.83;;;18.50;62.70;;;;;;5064016;28;20158;-83
2024/03/29 11:38:18;;;;;;;2.60;1.95;;;18.40;62.80;;;;;;5029699;28;20234;-83
2024/03/29 11:41:04;;;;;;;3.53;2.20;;;18.40;63.30;;;;;;5061351;28;20634;-83
2024/03/29 11:43:32;;;;;;;2.50;1.83;;;18.40;62.70;;;;;;5028191;28;20276;-83
2024/03/29 11:46:00;;;;;;;2.10;1.90;;;18.40;63.00;;;;;;5028141;28;20212;-83
2024/03/29 11:48:28;;;;;;;3.00;2.10;;;18.50;62.50;;;;;;5028762;28;20169;-83
2024/03/29 11:50:54;;;;;;;2.33;2.00;;;18.50;62.50;;;;;;5042963;28;20182;-83
2024/03/29 11:53:21;;;;;;;2.22;2.03;;;18.50;62.10;;;;;;5043663;28;20162;-83
2024/03/29 11:55:48;;;;;;;2.15;1.95;;;18.50;62.40;;;;;;5042502;28;20151;-83
2024/03/29 11:58:15;;;;;;;1.95;1.75;;;18.50;62.40;;;;;;5027126;28;20173;-83
2024/03/29 12:00:45;;;;;;;1.75;1.63;;;18.50;62.30;;;;;;5044300;28;20213;-83
2024/03/29 12:03:11;;;;;;;2.00;1.80;;;18.50;62.30;;;;;;5045730;28;20184;-83
2024/03/29 12:05:37;;;;;;;4.13;2.10;;;18.60;62.50;;;;;;5044643;28;20154;-83
2024/03/29 12:08:04;;;;;;;2.00;1.80;;;18.50;62.30;;;;;;5027051;28;20215;-83
2024/03/29 12:10:30;;;;;;;1.58;1.48;;;18.50;62.90;;;;;;5060339;28;20246;-82
2024/03/29 12:12:57;;;;;;;2.13;1.85;;;18.60;62.90;;;;;;5059671;28;20193;-82
2024/03/29 12:15:25;;;;;;;1.75;1.60;;;18.60;62.60;;;;;;5024887;28;20208;-82
2024/03/29 12:17:55;;;;;;;2.20;1.95;;;18.60;62.60;;;;;;5027247;28;20688;-82
2024/03/29 12:20:21;;;;;;;2.53;1.73;;;18.60;62.60;;;;;;5059687;28;20544;-84
2024/03/29 12:22:46;;;;;;;1.70;1.60;;;18.60;62.40;;;;;;5044328;28;20162;-83
2024/03/29 12:25:21;;;;;;;2.05;1.85;;;18.60;62.50;;;;;;5026181;28;20174;-83
2024/03/29 12:27:49;;;;;;;2.13;1.90;;;18.60;62.30;;;;;;5043050;28;20154;-82
2024/03/29 12:30:15;;;;;;;5.82;1.90;;;18.60;62.50;;;;;;5059167;28;20358;-83
2024/03/29 12:32:41;;;;;;;2.05;1.85;;;18.60;62.60;;;;;;5059253;28;20564;-83
2024/03/29 12:35:15;;;;;;;1.77;1.67;;;18.60;63.80;;;;;;5058602;28;20150;-82
2024/03/29 12:37:50;;;;;;;1.95;1.75;;;18.60;62.60;;;;;;5026298;28;20182;-83
2024/03/29 12:40:21;;;;;;;1.70;1.60;;;18.60;62.10;;;;;;5042000;28;20179;-82
2024/03/29 12:42:48;;;;;;;1.70;1.60;;;18.60;62.60;;;;;;5027194;28;20540;-82
2024/03/29 12:45:15;;;;;;;1.92;1.80;;;18.60;62.30;;;;;;5023078;28;20193;-82
2024/03/29 12:47:43;;;;;;;1.70;1.50;;;18.60;62.60;;;;;;5037145;28;20208;-82
2024/03/29 12:50:10;;;;;;;1.85;1.70;;;18.60;62.10;;;;;;5037380;28;20189;-82
2024/03/29 12:52:39;;;;;;;1.98;1.67;;;18.60;62.10;;;;;;5022056;28;20479;-82
2024/03/29 12:55:07;;;;;;;2.05;1.80;;;18.60;62.30;;;;;;5039938;28;20621;-83
2024/03/29 12:57:35;;;;;;;1.50;1.40;;;18.60;61.90;;;;;;5053256;28;20511;-82
2024/03/29 13:00:02;;;;;;;1.65;1.48;;;18.60;61.70;;;;;;5036975;28;20154;-82